createdAt,value
2023-01-29T00:02:12.980Z,71.14
2023-01-29T00:04:40.822Z,71.09
2023-01-29T00:07:08.680Z,71.05
2023-01-29T00:09:36.876Z,71.07
2023-01-29T00:12:04.845Z,70.91
2023-01-29T00:14:32.639Z,71.23
2023-01-29T00:17:00.544Z,70.81
2023-01-29T00:19:28.366Z,71.00
2023-01-29T00:21:56.235Z,71.00
2023-01-29T00:24:23.973Z,71.32
2023-01-29T00:26:52.255Z,71.08
2023-01-29T00:29:21.951Z,71.04
2023-01-29T00:31:49.988Z,71.16
2023-01-29T00:34:17.934Z,70.91
2023-01-29T00:36:46.385Z,70.87
2023-01-29T00:39:14.310Z,70.92
2023-01-29T00:42:00.744Z,70.55
2023-01-29T00:44:47.091Z,70.33
2023-01-29T00:47:30.757Z,70.72
2023-01-29T00:50:00.002Z,70.71
2023-01-29T00:52:28.794Z,70.19
2023-01-29T00:54:58.818Z,70.56
2023-01-29T00:57:28.936Z,70.62
2023-01-29T00:59:57.191Z,70.33
2023-01-29T01:02:44.565Z,70.71
2023-01-29T01:05:17.792Z,70.46
2023-01-29T01:07:51.997Z,70.41
2023-01-29T01:10:30.125Z,70.78
2023-01-29T01:13:04.914Z,70.66
2023-01-29T01:15:40.523Z,70.73
2023-01-29T01:18:08.418Z,70.85
2023-01-29T01:20:37.125Z,70.71
2023-01-29T01:23:05.425Z,70.69
2023-01-29T01:25:33.896Z,70.93
2023-01-29T01:28:01.856Z,70.81
2023-01-29T01:30:29.944Z,70.73
2023-01-29T01:32:58.190Z,70.68
2023-01-29T01:35:26.105Z,70.77
2023-01-29T01:37:53.919Z,70.58
2023-01-29T01:40:24.662Z,70.66
2023-01-29T01:42:58.070Z,70.52
2023-01-29T01:45:30.396Z,70.62
2023-01-29T01:48:17.258Z,70.33
2023-01-29T01:50:58.819Z,70.28
2023-01-29T01:53:35.108Z,70.41
2023-01-29T01:56:08.322Z,70.42
2023-01-29T01:58:43.632Z,70.35
2023-01-29T02:01:12.821Z,70.50
2023-01-29T02:04:08.405Z,70.40
2023-01-29T02:06:58.186Z,70.40
2023-01-29T02:09:43.461Z,70.21
2023-01-29T02:12:13.318Z,70.48
2023-01-29T02:14:42.443Z,70.50
2023-01-29T02:17:15.376Z,70.71
2023-01-29T02:20:01.377Z,70.47
2023-01-29T02:22:33.348Z,70.52
2023-01-29T02:25:13.992Z,70.54
2023-01-29T02:28:10.178Z,70.70
2023-01-29T02:30:45.462Z,70.57
2023-01-29T02:33:31.490Z,70.44
2023-01-29T02:36:05.692Z,70.57
2023-01-29T02:38:47.375Z,70.65
2023-01-29T02:41:28.736Z,70.50
2023-01-29T02:44:13.375Z,70.59
2023-01-29T02:46:51.037Z,70.58
2023-01-29T02:49:33.478Z,70.60
2023-01-29T02:52:23.413Z,70.58
2023-01-29T02:55:20.395Z,70.54
2023-01-29T02:58:01.997Z,70.37
2023-01-29T03:00:40.431Z,70.86
2023-01-29T03:03:33.397Z,70.62
2023-01-29T03:06:20.526Z,70.58
2023-01-29T03:09:05.413Z,70.83
2023-01-29T03:11:50.415Z,71.07
2023-01-29T03:15:00.627Z,70.65
2023-01-29T03:17:38.432Z,70.96
2023-01-29T03:20:15.808Z,71.17
2023-01-29T03:22:53.406Z,70.93
2023-01-29T03:25:45.601Z,71.07
2023-01-29T03:28:38.559Z,70.83
2023-01-29T03:31:31.517Z,71.02
2023-01-29T03:34:28.421Z,70.87
2023-01-29T03:37:08.451Z,70.83
2023-01-29T03:39:39.359Z,71.08
2023-01-29T03:42:39.433Z,70.92
2023-01-29T03:45:22.511Z,71.22
2023-01-29T03:48:51.443Z,70.97
2023-01-29T03:51:37.461Z,71.22
2023-01-29T04:01:51.337Z,71.19
2023-01-29T04:04:27.011Z,71.22
2023-01-29T04:07:02.029Z,71.08
2023-01-29T04:09:43.802Z,71.25
2023-01-29T04:12:16.087Z,71.46
2023-01-29T04:14:46.540Z,71.36
2023-01-29T04:17:19.508Z,71.27
2023-01-29T04:19:56.042Z,71.50
2023-01-29T04:22:31.311Z,71.44
2023-01-29T04:25:02.869Z,71.41
2023-01-29T04:27:49.668Z,71.73
2023-01-29T04:30:24.567Z,71.83
2023-01-29T04:33:04.506Z,71.60
2023-01-29T04:35:39.853Z,71.86
2023-01-29T04:38:16.651Z,72.06
2023-01-29T04:41:06.856Z,71.97
2023-01-29T04:44:24.799Z,71.80
2023-01-29T04:46:57.772Z,71.97
2023-01-29T04:49:41.021Z,72.06
2023-01-29T04:52:11.500Z,72.17
2023-01-29T04:54:58.135Z,72.48
2023-01-29T04:57:33.507Z,72.48
2023-01-29T05:00:13.910Z,72.42
2023-01-29T05:02:44.902Z,72.29
2023-01-29T05:05:14.843Z,72.41
2023-01-29T05:07:44.205Z,72.41
2023-01-29T05:10:15.235Z,72.30
2023-01-29T05:12:47.766Z,72.52
2023-01-29T05:15:20.336Z,72.47
2023-01-29T05:17:48.466Z,72.50
2023-01-29T05:20:16.820Z,72.33
2023-01-29T05:22:46.888Z,72.45
2023-01-29T05:25:30.445Z,72.35
2023-01-29T05:28:05.567Z,71.92
2023-01-29T05:30:36.097Z,72.21
2023-01-29T05:33:05.222Z,72.49
2023-01-29T05:35:33.259Z,72.43
2023-01-29T05:38:01.083Z,72.23
2023-01-29T05:40:28.917Z,72.29
2023-01-29T05:42:56.928Z,72.27
2023-01-29T05:45:25.304Z,72.27
2023-01-29T05:48:00.137Z,72.38
2023-01-29T05:50:28.040Z,72.62
2023-01-29T05:52:57.621Z,72.19
2023-01-29T05:55:26.192Z,71.98
2023-01-29T05:57:54.068Z,72.00
2023-01-29T06:00:22.042Z,72.53
2023-01-29T06:02:50.521Z,72.46
2023-01-29T06:05:18.607Z,72.56
2023-01-29T06:07:47.261Z,72.53
2023-01-29T06:10:17.903Z,72.70
2023-01-29T06:12:46.202Z,72.29
2023-01-29T06:15:19.804Z,72.38
2023-01-29T06:17:47.621Z,72.54
2023-01-29T06:20:15.819Z,72.30
2023-01-29T06:22:43.879Z,72.62
2023-01-29T06:25:12.149Z,72.40
2023-01-29T06:27:40.046Z,72.56
2023-01-29T06:30:08.801Z,72.42
2023-01-29T06:32:36.758Z,72.38
2023-01-29T06:35:05.464Z,72.79
2023-01-29T06:37:33.454Z,72.38
2023-01-29T06:40:01.501Z,72.56
2023-01-29T06:42:29.396Z,72.42
2023-01-29T06:44:57.970Z,72.24
2023-01-29T06:47:27.955Z,72.04
2023-01-29T06:49:55.837Z,72.23
2023-01-29T06:52:25.444Z,72.24
2023-01-29T06:54:53.324Z,72.53
2023-01-29T06:57:21.277Z,72.42
2023-01-29T06:59:49.240Z,72.27
2023-01-29T07:02:17.511Z,72.17
2023-01-29T07:04:45.496Z,71.99
2023-01-29T07:07:13.494Z,72.17
2023-01-29T07:09:42.310Z,72.04
2023-01-29T07:12:11.348Z,72.47
2023-01-29T07:14:39.190Z,72.24
2023-01-29T07:17:07.109Z,72.14
2023-01-29T07:19:35.027Z,72.15
2023-01-29T07:22:04.102Z,72.22
2023-01-29T07:24:32.865Z,72.16
2023-01-29T07:27:00.889Z,72.05
2023-01-29T07:29:29.113Z,72.09
2023-01-29T07:31:57.031Z,71.95
2023-01-29T07:34:25.081Z,71.77
2023-01-29T07:36:54.046Z,71.57
2023-01-29T07:39:21.871Z,71.65
2023-01-29T07:41:49.689Z,71.36
2023-01-29T07:44:17.632Z,71.55
2023-01-29T07:46:45.457Z,71.51
2023-01-29T07:49:13.533Z,71.24
2023-01-29T07:51:41.705Z,71.29
2023-01-29T07:54:09.558Z,71.23
2023-01-29T07:56:37.391Z,71.29
2023-01-29T07:59:05.317Z,71.43
2023-01-29T08:01:33.246Z,71.25
2023-01-29T08:04:01.009Z,71.04
2023-01-29T08:06:28.812Z,70.92
2023-01-29T08:08:57.593Z,71.47
2023-01-29T08:11:25.572Z,70.66
2023-01-29T08:13:54.579Z,70.96
2023-01-29T08:16:22.355Z,70.59
2023-01-29T08:18:50.273Z,70.54
2023-01-29T08:21:18.043Z,70.00
2023-01-29T08:23:45.839Z,70.16
2023-01-29T08:26:13.670Z,69.76
2023-01-29T08:28:41.623Z,69.52
2023-01-29T08:31:16.973Z,69.88
2023-01-29T08:33:44.812Z,70.01
2023-01-29T08:36:13.139Z,69.55
2023-01-29T08:38:40.957Z,69.76
2023-01-29T08:41:08.777Z,69.53
2023-01-29T08:43:40.821Z,69.61
2023-01-29T08:46:08.814Z,69.39
2023-01-29T08:48:36.994Z,69.10
2023-01-29T08:51:05.467Z,69.34
2023-01-29T08:53:33.453Z,69.20
2023-01-29T08:56:01.597Z,69.42
2023-01-29T08:58:29.412Z,69.46
2023-01-29T09:00:57.289Z,68.86
2023-01-29T09:03:25.160Z,68.93
2023-01-29T09:05:52.995Z,69.21
2023-01-29T09:08:20.936Z,69.23
2023-01-29T09:10:48.745Z,69.18
2023-01-29T09:13:16.570Z,69.04
2023-01-29T09:15:44.515Z,69.19
2023-01-29T09:18:12.329Z,68.42
2023-01-29T09:20:40.100Z,68.84
2023-01-29T09:23:10.366Z,69.26
2023-01-29T09:25:38.458Z,68.89
2023-01-29T09:28:06.426Z,68.53
2023-01-29T09:30:37.752Z,68.76
2023-01-29T09:33:07.214Z,68.52
2023-01-29T09:35:35.131Z,68.27
2023-01-29T09:38:03.166Z,68.33
2023-01-29T09:40:38.753Z,68.52
2023-01-29T09:43:20.747Z,68.45
2023-01-29T09:46:15.218Z,68.31
2023-01-29T09:48:46.013Z,68.43
2023-01-29T09:51:28.531Z,68.30
2023-01-29T09:54:14.670Z,68.33
2023-01-29T09:56:45.778Z,68.34
2023-01-29T09:59:17.345Z,68.48
2023-01-29T10:01:56.148Z,68.05
2023-01-29T10:04:52.136Z,68.35
2023-01-29T10:07:35.251Z,68.16
2023-01-29T10:10:19.082Z,68.09
2023-01-29T10:13:19.480Z,67.52
2023-01-29T10:16:13.280Z,68.03
2023-01-29T10:19:10.132Z,67.85
2023-01-29T10:22:01.042Z,67.54
2023-01-29T10:24:46.030Z,66.97
2023-01-29T10:27:16.915Z,67.11
2023-01-29T10:29:48.051Z,66.59
2023-01-29T10:32:18.841Z,66.19
2023-01-29T10:34:52.012Z,66.25
2023-01-29T10:37:24.412Z,66.44
2023-01-29T10:39:52.390Z,66.59
2023-01-29T10:42:34.509Z,66.70
2023-01-29T10:45:49.623Z,66.66
2023-01-29T10:48:41.241Z,66.43
2023-01-29T10:51:21.501Z,66.86
2023-01-29T10:54:14.982Z,66.84
2023-01-29T10:56:53.412Z,66.81
2023-01-29T10:59:35.083Z,67.30
2023-01-29T11:02:03.558Z,67.47
2023-01-29T11:04:32.132Z,67.29
2023-01-29T11:07:00.529Z,67.53
2023-01-29T11:09:51.548Z,67.43
2023-01-29T11:12:26.734Z,67.33
2023-01-29T11:14:57.392Z,68.12
2023-01-29T11:17:26.371Z,67.76
2023-01-29T11:19:56.087Z,67.97
2023-01-29T11:22:29.070Z,67.89
2023-01-29T11:25:11.418Z,68.11
2023-01-29T11:27:44.599Z,68.03
2023-01-29T11:30:25.722Z,68.26
2023-01-29T11:33:19.603Z,68.35
2023-01-29T11:35:47.629Z,68.26
2023-01-29T11:38:27.167Z,68.07
2023-01-29T11:41:22.421Z,67.94
2023-01-29T11:43:50.258Z,67.92
2023-01-29T11:46:18.078Z,67.54
2023-01-29T11:48:50.232Z,67.74
2023-01-29T11:51:27.396Z,67.88
2023-01-29T11:53:59.317Z,67.55
2023-01-29T11:56:51.764Z,67.73
2023-01-29T11:59:48.623Z,67.66
2023-01-29T12:02:26.683Z,67.75
2023-01-29T12:04:57.308Z,68.06
2023-01-29T12:07:25.734Z,68.22
2023-01-29T12:09:56.123Z,68.51
2023-01-29T12:12:31.999Z,68.53
2023-01-29T12:15:26.084Z,68.66
2023-01-29T12:17:58.586Z,69.23
2023-01-29T12:20:41.237Z,69.43
2023-01-29T12:23:25.896Z,69.40
2023-01-29T12:26:09.925Z,69.13
2023-01-29T12:28:53.402Z,69.58
2023-01-29T12:31:27.897Z,69.55
2023-01-29T12:34:08.980Z,69.48
2023-01-29T12:36:53.384Z,69.86
2023-01-29T12:39:22.035Z,69.83
2023-01-29T12:41:52.950Z,70.26
2023-01-29T12:44:42.489Z,70.34
2023-01-29T12:47:36.186Z,70.67
2023-01-29T12:50:24.737Z,70.45
2023-01-29T12:52:55.631Z,70.82
2023-01-29T12:55:33.690Z,70.74
2023-01-29T12:58:04.836Z,70.75
2023-01-29T13:00:35.913Z,71.17
2023-01-29T13:03:38.660Z,71.21
2023-01-29T13:06:10.553Z,70.92
2023-01-29T13:08:45.208Z,71.00
2023-01-29T13:11:20.609Z,70.97
2023-01-29T13:13:59.989Z,71.24
2023-01-29T13:16:37.567Z,71.43
2023-01-29T13:19:14.993Z,71.71
2023-01-29T13:21:44.724Z,72.04
2023-01-29T13:24:17.611Z,72.10
2023-01-29T13:26:47.749Z,72.52
2023-01-29T13:29:30.407Z,72.73
2023-01-29T13:32:01.007Z,73.14
2023-01-29T13:34:35.225Z,73.55
2023-01-29T13:37:22.100Z,73.72
2023-01-29T13:39:53.448Z,74.24
2023-01-29T13:42:35.342Z,74.29
2023-01-29T13:45:07.133Z,74.47
2023-01-29T13:47:40.435Z,74.90
2023-01-29T13:50:30.635Z,74.71
2023-01-29T13:53:02.333Z,75.08
2023-01-29T13:55:36.571Z,75.31
2023-01-29T13:58:31.889Z,75.30
2023-01-29T14:01:01.454Z,75.75
2023-01-29T14:03:39.925Z,76.18
2023-01-29T14:06:39.107Z,76.15
2023-01-29T14:09:32.528Z,76.48
2023-01-29T14:12:01.215Z,76.85
2023-01-29T14:14:47.815Z,76.92
2023-01-29T14:17:17.431Z,77.15
2023-01-29T14:19:54.815Z,77.33
2023-01-29T14:22:27.254Z,77.86
2023-01-29T14:25:00.629Z,78.94
2023-01-29T14:27:30.194Z,78.88
2023-01-29T14:30:02.738Z,78.81
2023-01-29T14:32:30.773Z,78.82
2023-01-29T14:35:05.253Z,78.79
2023-01-29T14:37:40.899Z,79.22
2023-01-29T14:40:11.745Z,79.39
2023-01-29T14:42:52.464Z,79.94
2023-01-29T14:45:26.257Z,79.92
2023-01-29T14:48:10.931Z,80.62
2023-01-29T14:50:46.339Z,81.22
2023-01-29T14:53:21.144Z,81.47
2023-01-29T14:56:15.049Z,80.95
2023-01-29T14:58:57.290Z,80.97
2023-01-29T15:01:31.071Z,81.51
2023-01-29T15:04:04.905Z,81.33
2023-01-29T15:06:47.339Z,81.18
2023-01-29T15:09:36.897Z,81.39
2023-01-29T15:12:33.857Z,81.35
2023-01-29T15:15:14.612Z,81.69
2023-01-29T15:17:57.127Z,82.68
2023-01-29T15:20:36.943Z,82.39
2023-01-29T15:23:26.079Z,82.17
2023-01-29T15:26:03.650Z,82.53
2023-01-29T15:28:33.946Z,82.35
2023-01-29T15:31:04.578Z,83.05
2023-01-29T15:33:35.317Z,83.64
2023-01-29T15:36:08.691Z,83.52
2023-01-29T15:38:37.046Z,82.99
2023-01-29T15:41:20.406Z,82.83
2023-01-29T15:43:57.541Z,82.92
2023-01-29T15:46:32.780Z,83.04
2023-01-29T15:49:08.530Z,83.00
2023-01-29T15:51:36.422Z,83.21
2023-01-29T15:54:10.155Z,83.36
2023-01-29T15:56:43.494Z,83.39
2023-01-29T15:59:21.703Z,83.06
2023-01-29T16:01:49.597Z,83.40
2023-01-29T16:04:33.600Z,83.35
2023-01-29T16:07:03.716Z,82.92
2023-01-29T16:09:32.137Z,83.21
2023-01-29T16:12:00.361Z,83.53
2023-01-29T16:14:30.280Z,83.28
2023-01-29T16:17:30.532Z,83.50
2023-01-29T16:20:00.355Z,83.77
2023-01-29T16:22:37.188Z,83.52
2023-01-29T16:25:08.657Z,83.30
2023-01-29T16:27:36.513Z,83.75
2023-01-29T16:30:07.262Z,83.53
2023-01-29T16:32:35.567Z,83.61
2023-01-29T16:35:03.970Z,83.59
2023-01-29T16:37:36.529Z,83.56
2023-01-29T16:40:26.807Z,83.71
2023-01-29T16:43:16.778Z,83.86
2023-01-29T16:46:06.064Z,83.87
2023-01-29T16:48:35.140Z,83.97
2023-01-29T16:51:14.380Z,84.19
2023-01-29T16:53:57.305Z,84.14
2023-01-29T16:56:28.415Z,83.63
2023-01-29T16:58:57.599Z,84.01
2023-01-29T17:01:28.771Z,83.91
2023-01-29T17:04:13.419Z,84.26
2023-01-29T17:06:44.802Z,84.33
2023-01-29T17:09:30.316Z,84.08
2023-01-29T17:12:02.562Z,84.28
2023-01-29T17:14:33.003Z,84.03
2023-01-29T17:17:16.740Z,84.08
2023-01-29T17:19:44.781Z,84.55
2023-01-29T17:22:15.535Z,84.61
2023-01-29T17:24:43.888Z,84.14
2023-01-29T17:27:20.006Z,84.38
2023-01-29T17:29:48.341Z,84.31
2023-01-29T17:32:18.991Z,84.36
2023-01-29T17:34:47.151Z,84.45
2023-01-29T17:37:16.566Z,84.30
2023-01-29T17:39:48.295Z,84.24
2023-01-29T17:42:16.675Z,84.30
2023-01-29T17:44:45.445Z,84.31
2023-01-29T17:47:15.178Z,84.44
2023-01-29T17:49:43.402Z,84.41
2023-01-29T17:52:11.628Z,84.32
2023-01-29T17:54:39.581Z,84.24
2023-01-29T17:57:07.539Z,84.27
2023-01-29T17:59:35.713Z,84.31
2023-01-29T18:02:03.676Z,84.83
2023-01-29T18:04:31.853Z,84.68
2023-01-29T18:06:59.833Z,84.87
2023-01-29T18:09:28.105Z,84.69
2023-01-29T18:11:55.889Z,84.69
2023-01-29T18:14:23.836Z,84.93
2023-01-29T18:16:51.666Z,85.34
2023-01-29T18:19:23.224Z,87.18
2023-01-29T18:21:51.656Z,87.66
2023-01-29T18:24:21.039Z,86.87
2023-01-29T18:26:51.154Z,86.51
2023-01-29T18:29:19.255Z,86.25
2023-01-29T18:31:50.540Z,86.29
2023-01-29T18:34:18.355Z,85.99
2023-01-29T18:36:48.227Z,86.06
2023-01-29T18:39:17.035Z,85.99
2023-01-29T18:41:44.860Z,85.45
2023-01-29T18:44:12.886Z,85.54
2023-01-29T18:46:40.815Z,85.38
2023-01-29T18:49:08.739Z,85.84
2023-01-29T18:51:36.611Z,85.55
2023-01-29T18:54:04.743Z,85.60
2023-01-29T18:56:32.596Z,85.38
2023-01-29T18:59:00.574Z,85.16
2023-01-29T19:01:28.831Z,85.39
2023-01-29T19:03:59.242Z,85.17
2023-01-29T19:06:27.466Z,84.94
2023-01-29T19:08:55.311Z,85.15
2023-01-29T19:11:23.230Z,84.89
2023-01-29T19:13:51.095Z,85.12
2023-01-29T19:16:18.938Z,84.75
2023-01-29T19:18:46.887Z,85.07
2023-01-29T19:21:16.200Z,85.08
2023-01-29T19:23:45.041Z,84.72
2023-01-29T19:26:13.775Z,84.96
2023-01-29T19:28:42.358Z,85.04
2023-01-29T19:31:11.530Z,85.02
2023-01-29T19:33:39.433Z,84.85
2023-01-29T19:36:07.893Z,84.99
2023-01-29T19:38:38.742Z,84.74
2023-01-29T19:41:06.968Z,85.00
2023-01-29T19:43:35.310Z,84.49
2023-01-29T19:46:03.249Z,84.67
2023-01-29T19:48:31.084Z,84.67
2023-01-29T19:51:01.616Z,84.86
2023-01-29T19:53:30.189Z,84.82
2023-01-29T19:56:03.843Z,84.58
2023-01-29T19:58:32.516Z,84.68
2023-01-29T20:01:05.722Z,84.98
2023-01-29T20:03:34.520Z,84.92
2023-01-29T20:06:03.988Z,84.79
2023-01-29T20:08:33.467Z,85.10
2023-01-29T20:11:02.709Z,85.33
2023-01-29T20:13:30.560Z,85.08
2023-01-29T20:16:03.018Z,85.12
2023-01-29T20:18:32.052Z,85.29
2023-01-29T20:21:05.561Z,85.17
2023-01-29T20:23:38.087Z,85.24
2023-01-29T20:26:08.748Z,84.86
2023-01-29T20:28:36.967Z,84.94
2023-01-29T20:31:06.800Z,85.02
2023-01-29T20:33:37.034Z,84.93
2023-01-29T20:36:10.149Z,84.86
2023-01-29T20:38:38.537Z,85.21
2023-01-29T20:41:14.080Z,85.18
2023-01-29T20:43:42.926Z,85.52
2023-01-29T20:46:11.708Z,85.67
2023-01-29T20:48:40.050Z,85.59
2023-01-29T20:51:13.049Z,85.84
2023-01-29T20:53:43.312Z,85.79
2023-01-29T20:56:12.024Z,85.93
2023-01-29T20:58:43.314Z,85.66
2023-01-29T21:01:13.442Z,86.04
2023-01-29T21:03:42.125Z,86.18
2023-01-29T21:06:11.298Z,86.07
2023-01-29T21:08:40.510Z,86.07
2023-01-29T21:11:09.406Z,86.25
2023-01-29T21:13:37.731Z,86.13
2023-01-29T21:16:06.613Z,85.92
2023-01-29T21:18:34.503Z,86.23
2023-01-29T21:21:02.397Z,86.13
2023-01-29T21:23:30.514Z,86.16
2023-01-29T21:26:06.262Z,86.12
2023-01-29T21:28:35.160Z,86.32
2023-01-29T21:31:10.685Z,85.90
2023-01-29T21:33:38.837Z,86.16
2023-01-29T21:36:07.631Z,86.20
2023-01-29T21:38:36.186Z,86.18
2023-01-29T21:41:06.892Z,86.17
2023-01-29T21:43:34.707Z,86.17
2023-01-29T21:46:05.243Z,86.15
2023-01-29T21:48:33.224Z,86.13
2023-01-29T21:51:01.058Z,86.29
2023-01-29T21:53:28.943Z,86.16
2023-01-29T21:56:00.157Z,86.00
2023-01-29T21:58:29.346Z,85.95
2023-01-29T22:01:18.480Z,86.10
2023-01-29T22:03:47.409Z,85.94
2023-01-29T22:06:15.779Z,86.35
2023-01-29T22:08:43.615Z,86.43
2023-01-29T22:11:12.135Z,86.55
2023-01-29T22:13:39.878Z,86.48
2023-01-29T22:16:08.047Z,86.59
2023-01-29T22:18:35.917Z,86.72
2023-01-29T22:21:03.790Z,86.92
2023-01-29T22:23:32.439Z,87.39
2023-01-29T22:26:09.492Z,87.25
2023-01-29T22:28:37.792Z,87.54
2023-01-29T22:31:05.990Z,87.62
2023-01-29T22:33:34.389Z,87.74
2023-01-29T22:36:02.573Z,87.71
2023-01-29T22:38:31.129Z,87.97
2023-01-29T22:41:00.540Z,87.55
2023-01-29T22:43:29.497Z,87.85
2023-01-29T22:45:57.404Z,87.60
2023-01-29T22:48:25.565Z,87.88
2023-01-29T22:51:09.444Z,87.99
2023-01-29T22:53:52.654Z,87.71
2023-01-29T22:56:25.325Z,87.53
2023-01-29T22:58:55.106Z,87.50
2023-01-29T23:01:25.760Z,87.78
2023-01-29T23:03:53.947Z,87.81
2023-01-29T23:06:22.063Z,87.87
2023-01-29T23:08:51.229Z,87.92
2023-01-29T23:11:21.549Z,87.74
2023-01-29T23:13:52.050Z,87.94
2023-01-29T23:16:23.099Z,87.62
2023-01-29T23:18:53.624Z,87.70
2023-01-29T23:21:24.952Z,87.74
2023-01-29T23:23:55.469Z,87.83
2023-01-29T23:26:42.883Z,87.89
2023-01-29T23:29:10.780Z,88.00
2023-01-29T23:31:39.071Z,87.86
2023-01-29T23:34:06.944Z,88.01
2023-01-29T23:44:09.348Z,88.12
2023-01-29T23:46:37.311Z,87.65
2023-01-29T23:49:05.405Z,87.89
2023-01-29T23:51:33.342Z,87.63
2023-01-29T23:54:01.153Z,87.84
2023-01-29T23:56:28.981Z,87.88
2023-01-29T23:58:58.046Z,87.88
